sensor_id;sensor_type;location;lat;lon;timestamp;P1;durP1;ratioP1;P2;durP2;ratioP2
53293;SDS011;39181;53.440;5.644;2022-12-11T11:53:46;53.33;;;23.30;;
53293;SDS011;39181;53.440;5.644;2022-12-11T11:56:19;49.38;;;23.48;;
53293;SDS011;39181;53.440;5.644;2022-12-11T11:58:58;49.33;;;24.17;;
53293;SDS011;39181;53.440;5.644;2022-12-11T12:01:44;50.13;;;22.75;;
53293;SDS011;39181;53.440;5.644;2022-12-11T12:04:10;51.15;;;24.42;;
53293;SDS011;39181;53.440;5.644;2022-12-11T12:09:33;48.33;;;23.05;;
53293;SDS011;39181;53.440;5.644;2022-12-11T12:20:42;52.85;;;24.05;;
53293;SDS011;39181;53.440;5.644;2022-12-11T12:23:06;53.40;;;24.05;;
53293;SDS011;39181;53.440;5.644;2022-12-11T12:25:54;47.33;;;23.65;;
53293;SDS011;39181;53.440;5.644;2022-12-11T12:34:11;49.05;;;23.08;;
53293;SDS011;39181;53.440;5.644;2022-12-11T12:39:55;50.78;;;23.30;;
53293;SDS011;39181;53.440;5.644;2022-12-11T12:45:15;45.40;;;22.92;;
53293;SDS011;39181;53.440;5.644;2022-12-11T12:47:48;45.53;;;21.67;;
53293;SDS011;39181;53.440;5.644;2022-12-11T12:50:19;40.92;;;21.98;;
53293;SDS011;39181;53.440;5.644;2022-12-11T12:52:46;35.30;;;18.07;;
53293;SDS011;39181;53.440;5.644;2022-12-11T12:55:20;42.72;;;20.92;;
53293;SDS011;39181;53.440;5.644;2022-12-11T13:00:29;42.47;;;21.02;;
53293;SDS011;39181;53.440;5.644;2022-12-11T13:02:55;42.38;;;21.88;;
53293;SDS011;39181;53.440;5.644;2022-12-11T13:05:23;38.20;;;20.73;;
53293;SDS011;39181;53.440;5.644;2022-12-11T13:07:55;36.75;;;20.15;;
53293;SDS011;39181;53.440;5.644;2022-12-11T13:10:27;43.40;;;21.35;;
53293;SDS011;39181;53.440;5.644;2022-12-11T13:12:56;40.25;;;19.98;;
53293;SDS011;39181;53.440;5.644;2022-12-11T13:17:53;39.63;;;19.98;;
53293;SDS011;39181;53.440;5.644;2022-12-11T13:20:21;38.55;;;20.35;;
53293;SDS011;39181;53.440;5.644;2022-12-11T13:25:56;38.20;;;19.17;;
53293;SDS011;39181;53.440;5.644;2022-12-11T13:28:30;37.33;;;20.77;;
53293;SDS011;39181;53.440;5.644;2022-12-11T13:33:40;38.67;;;20.30;;
53293;SDS011;39181;53.440;5.644;2022-12-11T13:38:38;33.83;;;18.50;;
53293;SDS011;39181;53.440;5.644;2022-12-11T13:41:13;30.33;;;17.85;;
53293;SDS011;39181;53.440;5.644;2022-12-11T13:43:40;33.20;;;18.52;;
53293;SDS011;39181;53.440;5.644;2022-12-11T13:46:09;37.80;;;20.23;;
53293;SDS011;39181;53.440;5.644;2022-12-11T13:48:43;33.53;;;18.15;;
53293;SDS011;39181;53.440;5.644;2022-12-11T13:51:14;34.10;;;18.13;;
53293;SDS011;39181;53.440;5.644;2022-12-11T13:53:43;37.38;;;18.83;;
53293;SDS011;39181;53.440;5.644;2022-12-11T13:56:17;34.40;;;18.48;;
53293;SDS011;39181;53.440;5.644;2022-12-11T13:58:44;35.50;;;17.70;;
53293;SDS011;39181;53.440;5.644;2022-12-11T14:01:10;31.98;;;17.90;;
53293;SDS011;39181;53.440;5.644;2022-12-11T14:03:51;35.75;;;19.13;;
53293;SDS011;39181;53.440;5.644;2022-12-11T14:06:19;43.55;;;22.42;;
53293;SDS011;39181;53.440;5.644;2022-12-11T14:08:47;42.42;;;23.23;;
53293;SDS011;39181;53.440;5.644;2022-12-11T14:11:24;36.03;;;19.17;;
53293;SDS011;39181;53.440;5.644;2022-12-11T14:13:56;34.08;;;18.95;;
53293;SDS011;39181;53.440;5.644;2022-12-11T14:16:24;34.20;;;18.70;;
53293;SDS011;39181;53.440;5.644;2022-12-11T14:18:51;34.60;;;18.92;;
53293;SDS011;39181;53.440;5.644;2022-12-11T14:21:19;35.03;;;18.45;;
53293;SDS011;39181;53.440;5.644;2022-12-11T14:23:52;33.60;;;18.00;;
53293;SDS011;39181;53.440;5.644;2022-12-11T14:26:22;34.33;;;17.67;;
53293;SDS011;39181;53.440;5.644;2022-12-11T14:28:52;35.63;;;19.80;;
53293;SDS011;39181;53.440;5.644;2022-12-11T14:33:57;33.03;;;17.38;;
53293;SDS011;39181;53.440;5.644;2022-12-11T14:36:27;37.58;;;19.17;;
53293;SDS011;39181;53.440;5.644;2022-12-11T14:38:54;35.22;;;20.20;;
53293;SDS011;39181;53.440;5.644;2022-12-11T14:41:27;34.17;;;18.80;;
53293;SDS011;39181;53.440;5.644;2022-12-11T14:44:00;35.83;;;18.23;;
53293;SDS011;39181;53.440;5.644;2022-12-11T14:46:33;36.97;;;19.92;;
53293;SDS011;39181;53.440;5.644;2022-12-11T14:49:06;45.70;;;21.70;;
53293;SDS011;39181;53.440;5.644;2022-12-11T14:51:41;43.22;;;22.52;;
53293;SDS011;39181;53.440;5.644;2022-12-11T14:54:13;47.78;;;23.48;;
53293;SDS011;39181;53.440;5.644;2022-12-11T14:56:50;40.45;;;20.58;;
53293;SDS011;39181;53.440;5.644;2022-12-11T14:59:20;41.30;;;22.30;;
53293;SDS011;39181;53.440;5.644;2022-12-11T15:04:31;44.95;;;21.63;;
53293;SDS011;39181;53.440;5.644;2022-12-11T15:06:57;43.50;;;21.63;;
53293;SDS011;39181;53.440;5.644;2022-12-11T15:12:08;52.38;;;30.05;;
53293;SDS011;39181;53.440;5.644;2022-12-11T15:17:14;38.95;;;19.23;;
53293;SDS011;39181;53.440;5.644;2022-12-11T15:19:40;40.92;;;20.70;;
53293;SDS011;39181;53.440;5.644;2022-12-11T15:22:36;38.38;;;18.55;;
53293;SDS011;39181;53.440;5.644;2022-12-11T15:25:15;43.40;;;19.67;;
53293;SDS011;39181;53.440;5.644;2022-12-11T15:27:48;38.15;;;19.80;;
53293;SDS011;39181;53.440;5.644;2022-12-11T15:32:43;37.97;;;20.45;;
53293;SDS011;39181;53.440;5.644;2022-12-11T15:35:22;35.85;;;18.40;;
53293;SDS011;39181;53.440;5.644;2022-12-11T15:37:53;37.05;;;17.45;;
53293;SDS011;39181;53.440;5.644;2022-12-11T15:40:20;36.03;;;18.00;;
53293;SDS011;39181;53.440;5.644;2022-12-11T15:42:46;31.80;;;16.98;;
53293;SDS011;39181;53.440;5.644;2022-12-11T15:45:22;38.03;;;18.50;;
53293;SDS011;39181;53.440;5.644;2022-12-11T15:47:50;34.60;;;17.67;;
53293;SDS011;39181;53.440;5.644;2022-12-11T15:50:18;34.78;;;17.60;;
53293;SDS011;39181;53.440;5.644;2022-12-11T15:52:47;28.88;;;15.88;;
53293;SDS011;39181;53.440;5.644;2022-12-11T15:55:14;32.80;;;17.83;;
53293;SDS011;39181;53.440;5.644;2022-12-11T15:57:44;32.58;;;16.58;;
53293;SDS011;39181;53.440;5.644;2022-12-11T16:00:13;33.53;;;17.95;;
53293;SDS011;39181;53.440;5.644;2022-12-11T16:02:40;34.97;;;17.52;;
53293;SDS011;39181;53.440;5.644;2022-12-11T16:05:06;35.22;;;18.95;;
53293;SDS011;39181;53.440;5.644;2022-12-11T16:07:32;35.67;;;17.25;;
53293;SDS011;39181;53.440;5.644;2022-12-11T16:09:58;35.55;;;17.25;;
53293;SDS011;39181;53.440;5.644;2022-12-11T16:12:24;37.03;;;19.17;;
53293;SDS011;39181;53.440;5.644;2022-12-11T16:14:49;33.10;;;17.13;;
53293;SDS011;39181;53.440;5.644;2022-12-11T16:17:15;36.65;;;18.15;;
53293;SDS011;39181;53.440;5.644;2022-12-11T16:19:42;34.22;;;18.05;;
53293;SDS011;39181;53.440;5.644;2022-12-11T16:22:08;35.50;;;18.90;;
53293;SDS011;39181;53.440;5.644;2022-12-11T16:24:35;35.40;;;19.23;;
53293;SDS011;39181;53.440;5.644;2022-12-11T16:27:01;32.60;;;16.77;;
53293;SDS011;39181;53.440;5.644;2022-12-11T16:29:27;30.95;;;16.85;;
53293;SDS011;39181;53.440;5.644;2022-12-11T16:31:53;33.53;;;16.88;;
53293;SDS011;39181;53.440;5.644;2022-12-11T16:34:23;35.28;;;17.98;;
53293;SDS011;39181;53.440;5.644;2022-12-11T16:36:50;33.85;;;16.83;;
53293;SDS011;39181;53.440;5.644;2022-12-11T16:39:15;33.83;;;16.40;;
53293;SDS011;39181;53.440;5.644;2022-12-11T16:41:41;30.90;;;15.85;;
53293;SDS011;39181;53.440;5.644;2022-12-11T16:44:06;26.55;;;13.77;;
53293;SDS011;39181;53.440;5.644;2022-12-11T16:46:32;32.28;;;15.02;;
53293;SDS011;39181;53.440;5.644;2022-12-11T16:48:57;31.13;;;15.93;;
53293;SDS011;39181;53.440;5.644;2022-12-11T16:51:23;33.72;;;16.85;;
53293;SDS011;39181;53.440;5.644;2022-12-11T16:53:49;34.00;;;16.63;;
53293;SDS011;39181;53.440;5.644;2022-12-11T16:56:14;31.98;;;16.77;;
53293;SDS011;39181;53.440;5.644;2022-12-11T16:58:40;29.63;;;16.73;;
53293;SDS011;39181;53.440;5.644;2022-12-11T17:01:09;29.67;;;16.90;;
53293;SDS011;39181;53.440;5.644;2022-12-11T17:06:05;30.73;;;15.05;;
53293;SDS011;39181;53.440;5.644;2022-12-11T17:08:31;34.33;;;17.00;;
53293;SDS011;39181;53.440;5.644;2022-12-11T17:11:03;31.33;;;16.45;;
53293;SDS011;39181;53.440;5.644;2022-12-11T17:13:30;36.63;;;16.23;;
53293;SDS011;39181;53.440;5.644;2022-12-11T17:15:56;33.45;;;17.15;;
53293;SDS011;39181;53.440;5.644;2022-12-11T17:18:22;33.65;;;17.30;;
53293;SDS011;39181;53.440;5.644;2022-12-11T17:20:47;34.65;;;16.88;;
53293;SDS011;39181;53.440;5.644;2022-12-11T17:23:13;32.30;;;15.52;;
53293;SDS011;39181;53.440;5.644;2022-12-11T17:25:43;33.88;;;16.33;;
53293;SDS011;39181;53.440;5.644;2022-12-11T17:28:09;31.08;;;15.50;;
53293;SDS011;39181;53.440;5.644;2022-12-11T17:30:39;33.47;;;14.98;;
53293;SDS011;39181;53.440;5.644;2022-12-11T17:33:06;35.13;;;16.73;;
53293;SDS011;39181;53.440;5.644;2022-12-11T17:35:32;32.42;;;14.32;;
53293;SDS011;39181;53.440;5.644;2022-12-11T17:37:58;34.50;;;16.83;;
53293;SDS011;39181;53.440;5.644;2022-12-11T17:40:24;33.03;;;16.25;;
53293;SDS011;39181;53.440;5.644;2022-12-11T17:42:50;34.00;;;15.75;;
53293;SDS011;39181;53.440;5.644;2022-12-11T17:45:16;35.30;;;16.33;;
53293;SDS011;39181;53.440;5.644;2022-12-11T17:47:42;34.90;;;14.80;;
53293;SDS011;39181;53.440;5.644;2022-12-11T17:50:07;33.65;;;16.15;;
53293;SDS011;39181;53.440;5.644;2022-12-11T17:52:33;34.05;;;15.88;;
53293;SDS011;39181;53.440;5.644;2022-12-11T17:54:59;32.53;;;15.52;;
53293;SDS011;39181;53.440;5.644;2022-12-11T17:57:25;28.35;;;14.43;;
53293;SDS011;39181;53.440;5.644;2022-12-11T17:59:52;32.38;;;16.08;;
53293;SDS011;39181;53.440;5.644;2022-12-11T18:02:18;38.55;;;15.98;;
53293;SDS011;39181;53.440;5.644;2022-12-11T18:04:43;35.53;;;16.20;;
53293;SDS011;39181;53.440;5.644;2022-12-11T18:07:09;34.40;;;16.77;;
53293;SDS011;39181;53.440;5.644;2022-12-11T18:09:37;37.10;;;17.30;;
53293;SDS011;39181;53.440;5.644;2022-12-11T18:12:04;38.38;;;17.83;;
53293;SDS011;39181;53.440;5.644;2022-12-11T18:14:30;35.28;;;17.55;;
53293;SDS011;39181;53.440;5.644;2022-12-11T18:16:56;37.17;;;18.23;;
53293;SDS011;39181;53.440;5.644;2022-12-11T18:19:22;37.72;;;18.13;;
53293;SDS011;39181;53.440;5.644;2022-12-11T18:21:50;38.85;;;19.05;;
53293;SDS011;39181;53.440;5.644;2022-12-11T18:24:16;40.65;;;17.73;;
53293;SDS011;39181;53.440;5.644;2022-12-11T18:26:42;37.80;;;16.80;;
53293;SDS011;39181;53.440;5.644;2022-12-11T18:29:08;36.72;;;18.35;;
53293;SDS011;39181;53.440;5.644;2022-12-11T18:31:33;41.78;;;19.38;;
53293;SDS011;39181;53.440;5.644;2022-12-11T18:33:59;41.38;;;18.58;;
53293;SDS011;39181;53.440;5.644;2022-12-11T18:36:25;41.88;;;18.92;;
53293;SDS011;39181;53.440;5.644;2022-12-11T18:38:51;39.33;;;18.63;;
53293;SDS011;39181;53.440;5.644;2022-12-11T18:41:17;41.65;;;19.15;;
53293;SDS011;39181;53.440;5.644;2022-12-11T18:43:43;42.60;;;19.13;;
53293;SDS011;39181;53.440;5.644;2022-12-11T18:46:13;41.10;;;19.58;;
53293;SDS011;39181;53.440;5.644;2022-12-11T18:48:40;43.38;;;20.25;;
53293;SDS011;39181;53.440;5.644;2022-12-11T18:51:07;41.38;;;18.45;;
53293;SDS011;39181;53.440;5.644;2022-12-11T18:53:35;43.67;;;20.10;;
53293;SDS011;39181;53.440;5.644;2022-12-11T18:56:04;36.97;;;18.88;;
53293;SDS011;39181;53.440;5.644;2022-12-11T18:58:35;43.60;;;20.57;;
53293;SDS011;39181;53.440;5.644;2022-12-11T19:01:13;42.50;;;19.40;;
53293;SDS011;39181;53.440;5.644;2022-12-11T19:03:41;41.95;;;20.85;;
53293;SDS011;39181;53.440;5.644;2022-12-11T19:08:35;46.15;;;21.42;;
53293;SDS011;39181;53.440;5.644;2022-12-11T19:11:01;44.30;;;19.67;;
53293;SDS011;39181;53.440;5.644;2022-12-11T19:13:27;40.50;;;18.77;;
53293;SDS011;39181;53.440;5.644;2022-12-11T19:15:52;42.80;;;19.67;;
53293;SDS011;39181;53.440;5.644;2022-12-11T19:18:18;36.40;;;18.38;;
53293;SDS011;39181;53.440;5.644;2022-12-11T19:20:44;40.63;;;19.65;;
53293;SDS011;39181;53.440;5.644;2022-12-11T19:23:11;35.80;;;17.05;;
53293;SDS011;39181;53.440;5.644;2022-12-11T19:25:41;42.80;;;20.27;;
53293;SDS011;39181;53.440;5.644;2022-12-11T19:28:11;41.10;;;19.00;;
53293;SDS011;39181;53.440;5.644;2022-12-11T19:30:44;41.50;;;19.55;;
53293;SDS011;39181;53.440;5.644;2022-12-11T19:33:12;42.50;;;18.63;;
53293;SDS011;39181;53.440;5.644;2022-12-11T19:35:39;40.75;;;18.10;;
53293;SDS011;39181;53.440;5.644;2022-12-11T19:38:05;39.40;;;20.00;;
53293;SDS011;39181;53.440;5.644;2022-12-11T19:40:32;44.88;;;20.92;;
53293;SDS011;39181;53.440;5.644;2022-12-11T19:42:58;37.95;;;18.90;;
53293;SDS011;39181;53.440;5.644;2022-12-11T19:45:24;43.40;;;21.38;;
53293;SDS011;39181;53.440;5.644;2022-12-11T19:47:49;39.20;;;19.75;;
53293;SDS011;39181;53.440;5.644;2022-12-11T19:50:15;44.05;;;20.33;;
53293;SDS011;39181;53.440;5.644;2022-12-11T19:52:40;43.45;;;21.25;;
53293;SDS011;39181;53.440;5.644;2022-12-11T19:55:06;44.45;;;20.75;;
53293;SDS011;39181;53.440;5.644;2022-12-11T19:57:32;43.33;;;20.90;;
53293;SDS011;39181;53.440;5.644;2022-12-11T19:59:59;48.80;;;20.98;;
53293;SDS011;39181;53.440;5.644;2022-12-11T20:02:25;43.80;;;20.10;;
53293;SDS011;39181;53.440;5.644;2022-12-11T20:04:51;43.22;;;19.00;;
53293;SDS011;39181;53.440;5.644;2022-12-11T20:07:17;44.45;;;19.52;;
53293;SDS011;39181;53.440;5.644;2022-12-11T20:09:43;46.97;;;23.63;;
53293;SDS011;39181;53.440;5.644;2022-12-11T20:12:08;41.65;;;19.40;;
53293;SDS011;39181;53.440;5.644;2022-12-11T20:14:34;45.33;;;21.25;;
53293;SDS011;39181;53.440;5.644;2022-12-11T20:17:01;43.67;;;21.85;;
53293;SDS011;39181;53.440;5.644;2022-12-11T20:19:27;45.63;;;21.30;;
53293;SDS011;39181;53.440;5.644;2022-12-11T20:21:53;43.47;;;21.00;;
53293;SDS011;39181;53.440;5.644;2022-12-11T20:24:19;38.03;;;19.02;;
53293;SDS011;39181;53.440;5.644;2022-12-11T20:26:45;35.40;;;18.85;;
53293;SDS011;39181;53.440;5.644;2022-12-11T20:29:12;43.22;;;20.85;;
53293;SDS011;39181;53.440;5.644;2022-12-11T20:31:37;39.03;;;18.50;;
53293;SDS011;39181;53.440;5.644;2022-12-11T20:34:03;37.13;;;18.98;;
53293;SDS011;39181;53.440;5.644;2022-12-11T20:36:29;42.78;;;20.27;;
53293;SDS011;39181;53.440;5.644;2022-12-11T20:38:55;39.80;;;19.10;;
53293;SDS011;39181;53.440;5.644;2022-12-11T20:41:21;34.92;;;17.98;;
53293;SDS011;39181;53.440;5.644;2022-12-11T20:43:48;36.20;;;17.30;;
53293;SDS011;39181;53.440;5.644;2022-12-11T20:46:14;38.20;;;18.60;;
53293;SDS011;39181;53.440;5.644;2022-12-11T20:48:41;41.05;;;18.98;;
53293;SDS011;39181;53.440;5.644;2022-12-11T20:51:09;40.00;;;18.50;;
53293;SDS011;39181;53.440;5.644;2022-12-11T20:53:36;38.33;;;18.58;;
53293;SDS011;39181;53.440;5.644;2022-12-11T20:56:10;41.25;;;19.63;;
53293;SDS011;39181;53.440;5.644;2022-12-11T20:58:37;40.22;;;18.80;;
53293;SDS011;39181;53.440;5.644;2022-12-11T21:01:03;43.50;;;18.90;;
53293;SDS011;39181;53.440;5.644;2022-12-11T21:03:29;41.28;;;20.00;;
53293;SDS011;39181;53.440;5.644;2022-12-11T21:05:57;38.92;;;19.38;;
53293;SDS011;39181;53.440;5.644;2022-12-11T21:08:22;44.15;;;19.63;;
53293;SDS011;39181;53.440;5.644;2022-12-11T21:10:48;37.17;;;18.50;;
53293;SDS011;39181;53.440;5.644;2022-12-11T21:13:13;41.28;;;17.77;;
53293;SDS011;39181;53.440;5.644;2022-12-11T21:15:40;39.60;;;17.65;;
53293;SDS011;39181;53.440;5.644;2022-12-11T21:18:07;45.63;;;17.33;;
53293;SDS011;39181;53.440;5.644;2022-12-11T21:20:33;38.95;;;17.92;;
53293;SDS011;39181;53.440;5.644;2022-12-11T21:22:59;41.28;;;19.17;;
53293;SDS011;39181;53.440;5.644;2022-12-11T21:25:25;42.22;;;18.67;;
53293;SDS011;39181;53.440;5.644;2022-12-11T21:27:51;42.30;;;18.58;;
53293;SDS011;39181;53.440;5.644;2022-12-11T21:30:16;37.90;;;18.02;;
53293;SDS011;39181;53.440;5.644;2022-12-11T21:32:42;49.80;;;22.02;;
53293;SDS011;39181;53.440;5.644;2022-12-11T21:35:08;41.10;;;19.48;;
53293;SDS011;39181;53.440;5.644;2022-12-11T21:37:34;42.63;;;19.77;;
53293;SDS011;39181;53.440;5.644;2022-12-11T21:40:00;43.75;;;19.08;;
53293;SDS011;39181;53.440;5.644;2022-12-11T21:42:26;46.72;;;20.48;;
53293;SDS011;39181;53.440;5.644;2022-12-11T21:44:52;43.75;;;19.88;;
53293;SDS011;39181;53.440;5.644;2022-12-11T21:47:18;48.42;;;20.50;;
53293;SDS011;39181;53.440;5.644;2022-12-11T21:49:44;44.08;;;19.42;;
53293;SDS011;39181;53.440;5.644;2022-12-11T21:52:10;46.70;;;21.67;;
53293;SDS011;39181;53.440;5.644;2022-12-11T21:54:35;47.75;;;21.52;;
53293;SDS011;39181;53.440;5.644;2022-12-11T21:57:01;42.72;;;20.73;;
53293;SDS011;39181;53.440;5.644;2022-12-11T21:59:26;37.45;;;19.02;;
53293;SDS011;39181;53.440;5.644;2022-12-11T22:01:52;37.10;;;18.67;;
53293;SDS011;39181;53.440;5.644;2022-12-11T22:04:18;47.08;;;21.35;;
53293;SDS011;39181;53.440;5.644;2022-12-11T22:06:44;43.10;;;20.33;;
53293;SDS011;39181;53.440;5.644;2022-12-11T22:09:11;48.80;;;21.33;;
53293;SDS011;39181;53.440;5.644;2022-12-11T22:11:38;39.80;;;19.70;;
53293;SDS011;39181;53.440;5.644;2022-12-11T22:14:04;43.35;;;20.00;;
53293;SDS011;39181;53.440;5.644;2022-12-11T22:16:31;39.05;;;18.85;;
53293;SDS011;39181;53.440;5.644;2022-12-11T22:18:57;42.80;;;19.80;;
53293;SDS011;39181;53.440;5.644;2022-12-11T22:21:23;44.30;;;21.15;;
53293;SDS011;39181;53.440;5.644;2022-12-11T22:23:48;43.00;;;20.95;;
53293;SDS011;39181;53.440;5.644;2022-12-11T22:26:24;42.10;;;21.10;;
53293;SDS011;39181;53.440;5.644;2022-12-11T22:28:55;42.17;;;19.02;;
53293;SDS011;39181;53.440;5.644;2022-12-11T22:31:22;41.08;;;19.98;;
53293;SDS011;39181;53.440;5.644;2022-12-11T22:33:49;39.72;;;21.40;;
53293;SDS011;39181;53.440;5.644;2022-12-11T22:36:18;40.75;;;20.38;;
53293;SDS011;39181;53.440;5.644;2022-12-11T22:38:44;40.15;;;20.00;;
53293;SDS011;39181;53.440;5.644;2022-12-11T22:41:30;49.03;;;21.33;;
53293;SDS011;39181;53.440;5.644;2022-12-11T22:43:56;43.40;;;20.13;;
53293;SDS011;39181;53.440;5.644;2022-12-11T22:46:23;45.35;;;20.38;;
53293;SDS011;39181;53.440;5.644;2022-12-11T22:48:50;58.03;;;20.60;;
53293;SDS011;39181;53.440;5.644;2022-12-11T22:51:17;42.88;;;20.17;;
53293;SDS011;39181;53.440;5.644;2022-12-11T22:53:43;41.80;;;19.40;;
53293;SDS011;39181;53.440;5.644;2022-12-11T22:56:09;43.55;;;20.98;;
53293;SDS011;39181;53.440;5.644;2022-12-11T22:58:37;44.58;;;20.63;;
53293;SDS011;39181;53.440;5.644;2022-12-11T23:01:06;42.95;;;20.83;;
53293;SDS011;39181;53.440;5.644;2022-12-11T23:03:34;38.93;;;19.20;;
53293;SDS011;39181;53.440;5.644;2022-12-11T23:06:03;40.35;;;20.38;;
53293;SDS011;39181;53.440;5.644;2022-12-11T23:08:32;41.55;;;21.67;;
53293;SDS011;39181;53.440;5.644;2022-12-11T23:10:58;38.58;;;19.48;;
53293;SDS011;39181;53.440;5.644;2022-12-11T23:13:24;43.40;;;21.40;;
53293;SDS011;39181;53.440;5.644;2022-12-11T23:15:50;40.17;;;20.17;;
53293;SDS011;39181;53.440;5.644;2022-12-11T23:18:15;40.55;;;20.05;;
53293;SDS011;39181;53.440;5.644;2022-12-11T23:20:41;42.70;;;21.30;;
53293;SDS011;39181;53.440;5.644;2022-12-11T23:23:06;43.92;;;20.65;;
53293;SDS011;39181;53.440;5.644;2022-12-11T23:25:32;44.58;;;20.42;;
53293;SDS011;39181;53.440;5.644;2022-12-11T23:27:58;41.50;;;20.52;;
53293;SDS011;39181;53.440;5.644;2022-12-11T23:30:23;43.78;;;22.65;;
53293;SDS011;39181;53.440;5.644;2022-12-11T23:32:49;42.65;;;21.00;;
53293;SDS011;39181;53.440;5.644;2022-12-11T23:35:14;41.47;;;20.15;;
53293;SDS011;39181;53.440;5.644;2022-12-11T23:37:40;41.97;;;20.77;;
53293;SDS011;39181;53.440;5.644;2022-12-11T23:40:06;39.35;;;19.90;;
53293;SDS011;39181;53.440;5.644;2022-12-11T23:42:33;43.45;;;21.05;;
53293;SDS011;39181;53.440;5.644;2022-12-11T23:44:58;41.88;;;22.23;;
53293;SDS011;39181;53.440;5.644;2022-12-11T23:47:24;41.92;;;21.05;;
53293;SDS011;39181;53.440;5.644;2022-12-11T23:49:50;41.60;;;21.65;;
53293;SDS011;39181;53.440;5.644;2022-12-11T23:52:15;43.65;;;19.27;;
53293;SDS011;39181;53.440;5.644;2022-12-11T23:54:41;42.45;;;20.95;;
53293;SDS011;39181;53.440;5.644;2022-12-11T23:57:06;44.63;;;21.55;;
53293;SDS011;39181;53.440;5.644;2022-12-11T23:59:32;42.03;;;21.70;;
